sensor_id;sensor_type;location;lat;lon;timestamp;P1;durP1;ratioP1;P2;durP2;ratioP2
74483;SDS011;62942;52.462;10.846;2024-02-21T00:00:25;9.9;;;25.3;;
74483;SDS011;62942;52.462;10.846;2024-02-21T00:01:35;10.4;;;26.6;;
74483;SDS011;62942;52.462;10.846;2024-02-21T00:02:45;10.1;;;25.2;;
74483;SDS011;62942;52.462;10.846;2024-02-21T00:03:45;9.9;;;26;;
74483;SDS011;62942;52.462;10.846;2024-02-21T00:04:55;9.9;;;25.8;;
74483;SDS011;62942;52.462;10.846;2024-02-21T00:06:05;9.2;;;25;;
74483;SDS011;62942;52.462;10.846;2024-02-21T00:07:15;9.5;;;25.8;;
74483;SDS011;62942;52.462;10.846;2024-02-21T00:08:15;8.8;;;24.9;;
74483;SDS011;62942;52.462;10.846;2024-02-21T00:09:25;9.6;;;24.4;;
74483;SDS011;62942;52.462;10.846;2024-02-21T00:10:35;9;;;22.1;;
74483;SDS011;62942;52.462;10.846;2024-02-21T00:11:45;9.4;;;28.1;;
74483;SDS011;62942;52.462;10.846;2024-02-21T00:12:55;9;;;22.4;;
74483;SDS011;62942;52.462;10.846;2024-02-21T00:13:55;9;;;22.7;;
74483;SDS011;62942;52.462;10.846;2024-02-21T00:15:05;9.4;;;23.3;;
74483;SDS011;62942;52.462;10.846;2024-02-21T00:16:15;9.3;;;24.3;;
74483;SDS011;62942;52.462;10.846;2024-02-21T00:17:15;9.3;;;24.2;;
74483;SDS011;62942;52.462;10.846;2024-02-21T00:18:15;9.6;;;26.3;;
74483;SDS011;62942;52.462;10.846;2024-02-21T00:19:15;9.3;;;21.6;;
74483;SDS011;62942;52.462;10.846;2024-02-21T00:20:25;9.4;;;26;;
74483;SDS011;62942;52.462;10.846;2024-02-21T00:21:35;9.1;;;24.6;;
74483;SDS011;62942;52.462;10.846;2024-02-21T00:22:45;9.2;;;23.3;;
74483;SDS011;62942;52.462;10.846;2024-02-21T00:23:55;9.1;;;24.6;;
74483;SDS011;62942;52.462;10.846;2024-02-21T00:25:05;8.7;;;24;;
74483;SDS011;62942;52.462;10.846;2024-02-21T00:26:15;9;;;21.4;;
74483;SDS011;62942;52.462;10.846;2024-02-21T00:27:25;9.1;;;23.4;;
74483;SDS011;62942;52.462;10.846;2024-02-21T00:28:35;9.6;;;24.5;;
74483;SDS011;62942;52.462;10.846;2024-02-21T00:29:35;8.7;;;19.1;;
74483;SDS011;62942;52.462;10.846;2024-02-21T00:30:35;9.2;;;22.1;;
74483;SDS011;62942;52.462;10.846;2024-02-21T00:31:45;9.2;;;22.3;;
74483;SDS011;62942;52.462;10.846;2024-02-21T00:32:55;8.6;;;22.3;;
74483;SDS011;62942;52.462;10.846;2024-02-21T00:34:05;9;;;23;;
74483;SDS011;62942;52.462;10.846;2024-02-21T00:35:05;8.9;;;22.4;;
74483;SDS011;62942;52.462;10.846;2024-02-21T00:36:15;9;;;22.3;;
74483;SDS011;62942;52.462;10.846;2024-02-21T00:37:25;8.9;;;24.2;;
74483;SDS011;62942;52.462;10.846;2024-02-21T00:38:35;8.7;;;22;;
74483;SDS011;62942;52.462;10.846;2024-02-21T00:39:45;8.9;;;22.6;;
74483;SDS011;62942;52.462;10.846;2024-02-21T00:40:45;8.6;;;20;;
74483;SDS011;62942;52.462;10.846;2024-02-21T00:41:45;9.2;;;21.1;;
74483;SDS011;62942;52.462;10.846;2024-02-21T00:42:55;8.5;;;19.1;;
74483;SDS011;62942;52.462;10.846;2024-02-21T00:44:05;8.7;;;19.5;;
74483;SDS011;62942;52.462;10.846;2024-02-21T00:45:15;8.7;;;22.2;;
74483;SDS011;62942;52.462;10.846;2024-02-21T00:46:15;8.9;;;21;;
74483;SDS011;62942;52.462;10.846;2024-02-21T00:47:25;8.5;;;21;;
74483;SDS011;62942;52.462;10.846;2024-02-21T00:48:35;9;;;22.7;;
74483;SDS011;62942;52.462;10.846;2024-02-21T00:49:45;8.7;;;18.8;;
74483;SDS011;62942;52.462;10.846;2024-02-21T00:50:55;8.5;;;19.6;;
74483;SDS011;62942;52.462;10.846;2024-02-21T00:51:55;9.2;;;21.5;;
74483;SDS011;62942;52.462;10.846;2024-02-21T00:52:55;8.6;;;20.5;;
74483;SDS011;62942;52.462;10.846;2024-02-21T00:54:05;8.4;;;19.5;;
74483;SDS011;62942;52.462;10.846;2024-02-21T00:55:05;9.2;;;23;;
74483;SDS011;62942;52.462;10.846;2024-02-21T00:56:14;8.8;;;21;;
74483;SDS011;62942;52.462;10.846;2024-02-21T00:57:15;8.9;;;19.9;;
74483;SDS011;62942;52.462;10.846;2024-02-21T00:58:24;8.6;;;18.8;;
74483;SDS011;62942;52.462;10.846;2024-02-21T00:59:25;8.9;;;21;;
74483;SDS011;62942;52.462;10.846;2024-02-21T01:00:35;8.7;;;20.1;;
74483;SDS011;62942;52.462;10.846;2024-02-21T01:01:45;8.8;;;21.6;;
74483;SDS011;62942;52.462;10.846;2024-02-21T01:02:45;9.1;;;22.2;;
74483;SDS011;62942;52.462;10.846;2024-02-21T01:03:45;8.5;;;19.6;;
74483;SDS011;62942;52.462;10.846;2024-02-21T01:04:54;9.1;;;21.9;;
74483;SDS011;62942;52.462;10.846;2024-02-21T01:06:05;8.8;;;18.1;;
74483;SDS011;62942;52.462;10.846;2024-02-21T01:07:05;9.4;;;19.2;;
74483;SDS011;62942;52.462;10.846;2024-02-21T01:08:05;8.9;;;19.9;;
74483;SDS011;62942;52.462;10.846;2024-02-21T01:09:05;9.4;;;21.8;;
74483;SDS011;62942;52.462;10.846;2024-02-21T01:10:15;9.6;;;21.4;;
74483;SDS011;62942;52.462;10.846;2024-02-21T01:11:15;9.3;;;22.1;;
74483;SDS011;62942;52.462;10.846;2024-02-21T01:12:24;9.4;;;21.6;;
74483;SDS011;62942;52.462;10.846;2024-02-21T01:13:24;9.4;;;22.3;;
74483;SDS011;62942;52.462;10.846;2024-02-21T01:14:35;9.9;;;21.1;;
74483;SDS011;62942;52.462;10.846;2024-02-21T01:15:45;9.8;;;22.2;;
74483;SDS011;62942;52.462;10.846;2024-02-21T01:16:54;9.4;;;19.4;;
74483;SDS011;62942;52.462;10.846;2024-02-21T01:18:04;9.7;;;21.8;;
74483;SDS011;62942;52.462;10.846;2024-02-21T01:19:05;9.6;;;19.3;;
74483;SDS011;62942;52.462;10.846;2024-02-21T01:20:05;9.6;;;19.6;;
74483;SDS011;62942;52.462;10.846;2024-02-21T01:21:15;9.8;;;20.9;;
74483;SDS011;62942;52.462;10.846;2024-02-21T01:22:15;10;;;19.9;;
74483;SDS011;62942;52.462;10.846;2024-02-21T01:23:26;10;;;21.7;;
74483;SDS011;62942;52.462;10.846;2024-02-21T01:24:35;10.3;;;23.8;;
74483;SDS011;62942;52.462;10.846;2024-02-21T01:25:45;10.1;;;24.8;;
74483;SDS011;62942;52.462;10.846;2024-02-21T01:26:45;9.9;;;21.9;;
74483;SDS011;62942;52.462;10.846;2024-02-21T01:27:54;10.4;;;21.6;;
74483;SDS011;62942;52.462;10.846;2024-02-21T01:28:54;10.3;;;23.8;;
74483;SDS011;62942;52.462;10.846;2024-02-21T01:29:54;10.2;;;19.3;;
74483;SDS011;62942;52.462;10.846;2024-02-21T01:30:54;10;;;20.3;;
74483;SDS011;62942;52.462;10.846;2024-02-21T01:32:05;10.6;;;21.2;;
74483;SDS011;62942;52.462;10.846;2024-02-21T01:33:14;10.1;;;22.2;;
74483;SDS011;62942;52.462;10.846;2024-02-21T01:34:24;10.6;;;21.4;;
74483;SDS011;62942;52.462;10.846;2024-02-21T01:35:24;10;;;19.3;;
74483;SDS011;62942;52.462;10.846;2024-02-21T01:36:25;11.1;;;23.9;;
74483;SDS011;62942;52.462;10.846;2024-02-21T01:37:24;10.9;;;22.8;;
74483;SDS011;62942;52.462;10.846;2024-02-21T01:38:34;10.8;;;21.1;;
74483;SDS011;62942;52.462;10.846;2024-02-21T01:39:34;11.3;;;22.2;;
74483;SDS011;62942;52.462;10.846;2024-02-21T01:40:35;10.6;;;23.7;;
74483;SDS011;62942;52.462;10.846;2024-02-21T01:41:44;10.9;;;23;;
74483;SDS011;62942;52.462;10.846;2024-02-21T01:42:44;10.9;;;22.5;;
74483;SDS011;62942;52.462;10.846;2024-02-21T01:43:44;11;;;22.2;;
74483;SDS011;62942;52.462;10.846;2024-02-21T01:44:55;10.8;;;23;;
74483;SDS011;62942;52.462;10.846;2024-02-21T01:46:05;12;;;25.2;;
74483;SDS011;62942;52.462;10.846;2024-02-21T01:47:14;11.4;;;24.5;;
74483;SDS011;62942;52.462;10.846;2024-02-21T01:48:25;11;;;22.7;;
74483;SDS011;62942;52.462;10.846;2024-02-21T01:49:34;11.6;;;24.4;;
74483;SDS011;62942;52.462;10.846;2024-02-21T01:50:45;11.4;;;23.1;;
74483;SDS011;62942;52.462;10.846;2024-02-21T01:51:45;11.2;;;21.7;;
74483;SDS011;62942;52.462;10.846;2024-02-21T01:52:54;11.9;;;23.9;;
74483;SDS011;62942;52.462;10.846;2024-02-21T01:53:55;12;;;24.8;;
74483;SDS011;62942;52.462;10.846;2024-02-21T01:54:54;12;;;23.9;;
74483;SDS011;62942;52.462;10.846;2024-02-21T01:55:54;11.6;;;23.1;;
74483;SDS011;62942;52.462;10.846;2024-02-21T01:56:55;11.8;;;23.2;;
74483;SDS011;62942;52.462;10.846;2024-02-21T01:57:54;12.3;;;25.5;;
74483;SDS011;62942;52.462;10.846;2024-02-21T01:59:04;12.3;;;25;;
74483;SDS011;62942;52.462;10.846;2024-02-21T02:00:05;12.4;;;26.1;;
74483;SDS011;62942;52.462;10.846;2024-02-21T02:01:04;11.7;;;22.4;;
74483;SDS011;62942;52.462;10.846;2024-02-21T02:02:14;12.4;;;25.7;;
74483;SDS011;62942;52.462;10.846;2024-02-21T02:03:24;12.5;;;23.2;;
74483;SDS011;62942;52.462;10.846;2024-02-21T02:04:24;12;;;20.5;;
74483;SDS011;62942;52.462;10.846;2024-02-21T02:05:34;13.1;;;26.6;;
74483;SDS011;62942;52.462;10.846;2024-02-21T02:06:44;12.9;;;24.9;;
74483;SDS011;62942;52.462;10.846;2024-02-21T02:07:44;13.1;;;27.4;;
74483;SDS011;62942;52.462;10.846;2024-02-21T02:08:54;13.2;;;27.2;;
74483;SDS011;62942;52.462;10.846;2024-02-21T02:10:05;12.7;;;23.9;;
74483;SDS011;62942;52.462;10.846;2024-02-21T02:11:04;13.7;;;28.8;;
74483;SDS011;62942;52.462;10.846;2024-02-21T02:12:14;13.3;;;27.2;;
74483;SDS011;62942;52.462;10.846;2024-02-21T02:13:14;13.9;;;27.7;;
74483;SDS011;62942;52.462;10.846;2024-02-21T02:14:14;13.2;;;27.5;;
74483;SDS011;62942;52.462;10.846;2024-02-21T02:15:14;13.8;;;26.9;;
74483;SDS011;62942;52.462;10.846;2024-02-21T02:16:24;13.3;;;26.9;;
74483;SDS011;62942;52.462;10.846;2024-02-21T02:17:34;13.2;;;26.9;;
74483;SDS011;62942;52.462;10.846;2024-02-21T02:18:44;13.3;;;25.9;;
74483;SDS011;62942;52.462;10.846;2024-02-21T02:19:54;13.4;;;25.1;;
74483;SDS011;62942;52.462;10.846;2024-02-21T02:21:04;13.6;;;26.8;;
74483;SDS011;62942;52.462;10.846;2024-02-21T02:22:06;13.6;;;25.1;;
74483;SDS011;62942;52.462;10.846;2024-02-21T02:23:18;14;;;28;;
74483;SDS011;62942;52.462;10.846;2024-02-21T02:24:14;13.4;;;27.8;;
74483;SDS011;62942;52.462;10.846;2024-02-21T02:25:14;13.4;;;27.2;;
74483;SDS011;62942;52.462;10.846;2024-02-21T02:26:24;14.2;;;29.2;;
74483;SDS011;62942;52.462;10.846;2024-02-21T02:27:41;14;;;26.5;;
74483;SDS011;62942;52.462;10.846;2024-02-21T02:28:44;13.9;;;26.4;;
74483;SDS011;62942;52.462;10.846;2024-02-21T02:29:44;14.2;;;26.9;;
74483;SDS011;62942;52.462;10.846;2024-02-21T02:30:45;13.9;;;25.7;;
74483;SDS011;62942;52.462;10.846;2024-02-21T02:31:54;13.6;;;26.9;;
74483;SDS011;62942;52.462;10.846;2024-02-21T02:33:05;14.6;;;27.5;;
74483;SDS011;62942;52.462;10.846;2024-02-21T02:34:04;14.2;;;29.4;;
74483;SDS011;62942;52.462;10.846;2024-02-21T02:35:14;13.6;;;25.5;;
74483;SDS011;62942;52.462;10.846;2024-02-21T02:36:14;13.4;;;26.5;;
74483;SDS011;62942;52.462;10.846;2024-02-21T02:37:24;14;;;28.3;;
74483;SDS011;62942;52.462;10.846;2024-02-21T02:38:34;14.2;;;26.6;;
74483;SDS011;62942;52.462;10.846;2024-02-21T02:39:34;14;;;28;;
74483;SDS011;62942;52.462;10.846;2024-02-21T02:40:35;13.7;;;29.3;;
74483;SDS011;62942;52.462;10.846;2024-02-21T02:41:35;14.3;;;29.4;;
74483;SDS011;62942;52.462;10.846;2024-02-21T02:42:44;14.1;;;29.9;;
74483;SDS011;62942;52.462;10.846;2024-02-21T02:43:44;13.9;;;24.5;;
74483;SDS011;62942;52.462;10.846;2024-02-21T02:44:54;13.7;;;27.1;;
74483;SDS011;62942;52.462;10.846;2024-02-21T02:46:04;13.4;;;26.5;;
74483;SDS011;62942;52.462;10.846;2024-02-21T02:47:04;13.7;;;25.1;;
74483;SDS011;62942;52.462;10.846;2024-02-21T02:48:14;12.9;;;23.3;;
74483;SDS011;62942;52.462;10.846;2024-02-21T02:49:14;13.6;;;28.4;;
74483;SDS011;62942;52.462;10.846;2024-02-21T02:50:25;13.9;;;26.8;;
74483;SDS011;62942;52.462;10.846;2024-02-21T02:51:24;13;;;24.7;;
74483;SDS011;62942;52.462;10.846;2024-02-21T02:52:24;13.6;;;25.9;;
74483;SDS011;62942;52.462;10.846;2024-02-21T02:53:34;13.9;;;26.7;;
74483;SDS011;62942;52.462;10.846;2024-02-21T02:54:45;13.7;;;26.6;;
74483;SDS011;62942;52.462;10.846;2024-02-21T02:55:54;13.4;;;26.4;;
74483;SDS011;62942;52.462;10.846;2024-02-21T02:56:54;13.8;;;26.1;;
74483;SDS011;62942;52.462;10.846;2024-02-21T02:57:54;13.3;;;26.4;;
74483;SDS011;62942;52.462;10.846;2024-02-21T02:59:04;13.6;;;24.9;;
74483;SDS011;62942;52.462;10.846;2024-02-21T03:00:15;13;;;26.8;;
74483;SDS011;62942;52.462;10.846;2024-02-21T03:01:24;12.9;;;26.7;;
74483;SDS011;62942;52.462;10.846;2024-02-21T03:02:24;13;;;24.4;;
74483;SDS011;62942;52.462;10.846;2024-02-21T03:03:34;13.2;;;24.9;;
74483;SDS011;62942;52.462;10.846;2024-02-21T03:04:44;12.7;;;22.9;;
74483;SDS011;62942;52.462;10.846;2024-02-21T03:05:54;13.2;;;25.8;;
74483;SDS011;62942;52.462;10.846;2024-02-21T03:06:54;12.8;;;23.3;;
74483;SDS011;62942;52.462;10.846;2024-02-21T03:08:04;12.6;;;24.1;;
74483;SDS011;62942;52.462;10.846;2024-02-21T03:09:04;12.8;;;24.8;;
74483;SDS011;62942;52.462;10.846;2024-02-21T03:10:14;12.6;;;22.6;;
74483;SDS011;62942;52.462;10.846;2024-02-21T03:11:15;12.9;;;25.6;;
74483;SDS011;62942;52.462;10.846;2024-02-21T03:12:16;13;;;24.7;;
74483;SDS011;62942;52.462;10.846;2024-02-21T03:13:24;12.5;;;23.3;;
74483;SDS011;62942;52.462;10.846;2024-02-21T03:14:34;12.4;;;26.1;;
74483;SDS011;62942;52.462;10.846;2024-02-21T03:15:44;12.8;;;25.1;;
74483;SDS011;62942;52.462;10.846;2024-02-21T03:16:44;12.3;;;23.4;;
74483;SDS011;62942;52.462;10.846;2024-02-21T03:17:44;12.4;;;24.5;;
74483;SDS011;62942;52.462;10.846;2024-02-21T03:18:54;12.9;;;25.5;;
74483;SDS011;62942;52.462;10.846;2024-02-21T03:20:05;12.4;;;24.2;;
74483;SDS011;62942;52.462;10.846;2024-02-21T03:21:14;12.5;;;23.7;;
74483;SDS011;62942;52.462;10.846;2024-02-21T03:22:14;12.4;;;21.7;;
74483;SDS011;62942;52.462;10.846;2024-02-21T03:23:24;11.6;;;22.5;;
74483;SDS011;62942;52.462;10.846;2024-02-21T03:24:34;12.2;;;21.8;;
74483;SDS011;62942;52.462;10.846;2024-02-21T03:25:44;12.2;;;22.8;;
74483;SDS011;62942;52.462;10.846;2024-02-21T03:26:46;12.5;;;25.1;;
74483;SDS011;62942;52.462;10.846;2024-02-21T03:27:54;12;;;22.1;;
74483;SDS011;62942;52.462;10.846;2024-02-21T03:29:04;12.6;;;26.1;;
74483;SDS011;62942;52.462;10.846;2024-02-21T03:30:14;12.3;;;24.8;;
74483;SDS011;62942;52.462;10.846;2024-02-21T03:31:24;11.9;;;22.2;;
74483;SDS011;62942;52.462;10.846;2024-02-21T03:32:24;12.1;;;20.9;;
74483;SDS011;62942;52.462;10.846;2024-02-21T03:33:34;12.5;;;23.9;;
74483;SDS011;62942;52.462;10.846;2024-02-21T03:34:34;12.5;;;24;;
74483;SDS011;62942;52.462;10.846;2024-02-21T03:35:34;12.1;;;21.1;;
74483;SDS011;62942;52.462;10.846;2024-02-21T03:36:44;12.7;;;25.2;;
74483;SDS011;62942;52.462;10.846;2024-02-21T03:37:44;12.4;;;21.9;;
74483;SDS011;62942;52.462;10.846;2024-02-21T03:38:54;12.3;;;22.3;;
74483;SDS011;62942;52.462;10.846;2024-02-21T03:39:54;13.7;;;26.5;;
74483;SDS011;62942;52.462;10.846;2024-02-21T03:40:54;12.4;;;21.9;;
74483;SDS011;62942;52.462;10.846;2024-02-21T03:42:05;12.4;;;23.4;;
74483;SDS011;62942;52.462;10.846;2024-02-21T03:43:14;11.9;;;21.3;;
74483;SDS011;62942;52.462;10.846;2024-02-21T03:44:24;12.6;;;22.6;;
74483;SDS011;62942;52.462;10.846;2024-02-21T03:45:34;12.9;;;23;;
74483;SDS011;62942;52.462;10.846;2024-02-21T03:46:34;12.4;;;22;;
74483;SDS011;62942;52.462;10.846;2024-02-21T03:47:34;12.7;;;25.3;;
74483;SDS011;62942;52.462;10.846;2024-02-21T03:48:44;11.9;;;23.3;;
74483;SDS011;62942;52.462;10.846;2024-02-21T03:49:44;12.5;;;24.4;;
74483;SDS011;62942;52.462;10.846;2024-02-21T03:50:44;12.6;;;21.4;;
74483;SDS011;62942;52.462;10.846;2024-02-21T03:51:54;12.6;;;25.2;;
74483;SDS011;62942;52.462;10.846;2024-02-21T03:53:04;12.6;;;20.9;;
74483;SDS011;62942;52.462;10.846;2024-02-21T03:54:14;12.8;;;23.8;;
74483;SDS011;62942;52.462;10.846;2024-02-21T03:55:24;12.9;;;22.7;;
74483;SDS011;62942;52.462;10.846;2024-02-21T03:56:36;13;;;22.8;;
74483;SDS011;62942;52.462;10.846;2024-02-21T03:57:34;13.3;;;22.9;;
74483;SDS011;62942;52.462;10.846;2024-02-21T03:58:34;12.6;;;22.5;;
74483;SDS011;62942;52.462;10.846;2024-02-21T03:59:44;12.8;;;21.2;;
74483;SDS011;62942;52.462;10.846;2024-02-21T04:00:44;12.9;;;23.8;;
74483;SDS011;62942;52.462;10.846;2024-02-21T04:01:54;13.5;;;23.7;;
74483;SDS011;62942;52.462;10.846;2024-02-21T04:02:54;12.6;;;21.7;;
74483;SDS011;62942;52.462;10.846;2024-02-21T04:04:04;13.2;;;25.3;;
74483;SDS011;62942;52.462;10.846;2024-02-21T04:05:04;12.9;;;21.9;;
74483;SDS011;62942;52.462;10.846;2024-02-21T04:06:04;13.9;;;24.4;;
74483;SDS011;62942;52.462;10.846;2024-02-21T04:07:14;13.4;;;24.5;;
74483;SDS011;62942;52.462;10.846;2024-02-21T04:08:24;13.6;;;24.9;;
74483;SDS011;62942;52.462;10.846;2024-02-21T04:09:34;13.2;;;23.4;;
74483;SDS011;62942;52.462;10.846;2024-02-21T04:10:44;13.8;;;23.8;;
74483;SDS011;62942;52.462;10.846;2024-02-21T04:11:44;13.5;;;23.7;;
74483;SDS011;62942;52.462;10.846;2024-02-21T04:12:44;13.6;;;22.7;;
74483;SDS011;62942;52.462;10.846;2024-02-21T04:13:54;13.1;;;21.8;;
74483;SDS011;62942;52.462;10.846;2024-02-21T04:14:54;12.9;;;21.9;;
74483;SDS011;62942;52.462;10.846;2024-02-21T04:16:04;13.1;;;24.8;;
74483;SDS011;62942;52.462;10.846;2024-02-21T04:17:14;12.8;;;22.2;;
74483;SDS011;62942;52.462;10.846;2024-02-21T04:18:24;13;;;23.5;;
74483;SDS011;62942;52.462;10.846;2024-02-21T04:19:24;13.1;;;22.8;;
74483;SDS011;62942;52.462;10.846;2024-02-21T04:20:34;13.8;;;25.2;;
74483;SDS011;62942;52.462;10.846;2024-02-21T04:21:44;13.3;;;22.5;;
74483;SDS011;62942;52.462;10.846;2024-02-21T04:22:54;13;;;23.9;;
74483;SDS011;62942;52.462;10.846;2024-02-21T04:23:54;13.2;;;24.8;;
74483;SDS011;62942;52.462;10.846;2024-02-21T04:24:54;13.3;;;22.9;;
74483;SDS011;62942;52.462;10.846;2024-02-21T04:26:04;12.7;;;22.3;;
74483;SDS011;62942;52.462;10.846;2024-02-21T04:27:04;13.1;;;23.2;;
74483;SDS011;62942;52.462;10.846;2024-02-21T04:28:14;13.1;;;22.3;;
74483;SDS011;62942;52.462;10.846;2024-02-21T04:29:24;12.9;;;23.2;;
74483;SDS011;62942;52.462;10.846;2024-02-21T04:30:24;12.9;;;22.1;;
74483;SDS011;62942;52.462;10.846;2024-02-21T04:31:24;12.9;;;22.4;;
74483;SDS011;62942;52.462;10.846;2024-02-21T04:32:34;12.8;;;20.3;;
74483;SDS011;62942;52.462;10.846;2024-02-21T04:33:44;12.9;;;23.4;;
74483;SDS011;62942;52.462;10.846;2024-02-21T04:34:44;13;;;25.1;;
74483;SDS011;62942;52.462;10.846;2024-02-21T04:35:44;13.2;;;23.5;;
74483;SDS011;62942;52.462;10.846;2024-02-21T04:36:54;12.5;;;21.4;;
74483;SDS011;62942;52.462;10.846;2024-02-21T04:37:54;12.5;;;22.5;;
74483;SDS011;62942;52.462;10.846;2024-02-21T04:38:54;12.7;;;21.8;;
74483;SDS011;62942;52.462;10.846;2024-02-21T04:39:54;12.5;;;21.2;;
74483;SDS011;62942;52.462;10.846;2024-02-21T04:41:04;12.8;;;21.4;;
74483;SDS011;62942;52.462;10.846;2024-02-21T04:42:04;13.1;;;21.6;;
74483;SDS011;62942;52.462;10.846;2024-02-21T04:43:14;13;;;22.7;;
74483;SDS011;62942;52.462;10.846;2024-02-21T04:44:14;13.3;;;24.4;;
74483;SDS011;62942;52.462;10.846;2024-02-21T04:45:24;13;;;23.5;;
74483;SDS011;62942;52.462;10.846;2024-02-21T04:46:24;12.6;;;20.6;;
74483;SDS011;62942;52.462;10.846;2024-02-21T04:47:24;13.4;;;22.7;;
74483;SDS011;62942;52.462;10.846;2024-02-21T04:48:34;13;;;22.6;;
74483;SDS011;62942;52.462;10.846;2024-02-21T04:49:34;13.1;;;24.2;;
74483;SDS011;62942;52.462;10.846;2024-02-21T04:50:44;13.1;;;23;;
74483;SDS011;62942;52.462;10.846;2024-02-21T04:51:45;13.3;;;24;;
74483;SDS011;62942;52.462;10.846;2024-02-21T04:52:44;12.8;;;22;;
74483;SDS011;62942;52.462;10.846;2024-02-21T04:53:54;13;;;22.2;;
74483;SDS011;62942;52.462;10.846;2024-02-21T04:54:54;13.2;;;23.9;;
74483;SDS011;62942;52.462;10.846;2024-02-21T04:56:04;12.5;;;21.5;;
74483;SDS011;62942;52.462;10.846;2024-02-21T04:57:14;12.8;;;22.9;;
74483;SDS011;62942;52.462;10.846;2024-02-21T04:58:14;12.7;;;24.1;;
74483;SDS011;62942;52.462;10.846;2024-02-21T04:59:24;12.8;;;21.2;;
74483;SDS011;62942;52.462;10.846;2024-02-21T05:00:24;12.7;;;22.3;;
74483;SDS011;62942;52.462;10.846;2024-02-21T05:01:24;12.8;;;21;;
74483;SDS011;62942;52.462;10.846;2024-02-21T05:02:34;12.6;;;21.2;;
74483;SDS011;62942;52.462;10.846;2024-02-21T05:03:34;12.5;;;20.6;;
74483;SDS011;62942;52.462;10.846;2024-02-21T05:04:44;12.3;;;21;;
74483;SDS011;62942;52.462;10.846;2024-02-21T05:05:54;12.6;;;21.3;;
74483;SDS011;62942;52.462;10.846;2024-02-21T05:06:54;12.7;;;21.6;;
74483;SDS011;62942;52.462;10.846;2024-02-21T05:08:04;12.1;;;20.5;;
74483;SDS011;62942;52.462;10.846;2024-02-21T05:09:04;12.3;;;20.3;;
74483;SDS011;62942;52.462;10.846;2024-02-21T05:10:14;12.8;;;22.7;;
74483;SDS011;62942;52.462;10.846;2024-02-21T05:11:14;12.2;;;21.9;;
74483;SDS011;62942;52.462;10.846;2024-02-21T05:12:14;12.2;;;19;;
74483;SDS011;62942;52.462;10.846;2024-02-21T05:13:26;12.4;;;24.2;;
74483;SDS011;62942;52.462;10.846;2024-02-21T05:14:34;11.6;;;21.1;;
74483;SDS011;62942;52.462;10.846;2024-02-21T05:15:34;12.6;;;22.5;;
74483;SDS011;62942;52.462;10.846;2024-02-21T05:16:44;12.6;;;23.8;;
74483;SDS011;62942;52.462;10.846;2024-02-21T05:17:54;12.4;;;23.2;;
74483;SDS011;62942;52.462;10.846;2024-02-21T05:18:54;12;;;21.2;;
74483;SDS011;62942;52.462;10.846;2024-02-21T05:19:54;12.2;;;20.1;;
74483;SDS011;62942;52.462;10.846;2024-02-21T05:21:04;12.4;;;21.6;;
74483;SDS011;62942;52.462;10.846;2024-02-21T05:22:04;12.4;;;20.6;;
74483;SDS011;62942;52.462;10.846;2024-02-21T05:23:04;12.1;;;19;;
74483;SDS011;62942;52.462;10.846;2024-02-21T05:24:04;12.5;;;22.7;;
74483;SDS011;62942;52.462;10.846;2024-02-21T05:25:14;12.6;;;23.9;;
74483;SDS011;62942;52.462;10.846;2024-02-21T05:26:25;12.4;;;21.5;;
74483;SDS011;62942;52.462;10.846;2024-02-21T05:27:24;12.1;;;21.7;;
74483;SDS011;62942;52.462;10.846;2024-02-21T05:28:34;12.3;;;22.5;;
74483;SDS011;62942;52.462;10.846;2024-02-21T05:29:34;12.4;;;21.1;;
74483;SDS011;62942;52.462;10.846;2024-02-21T05:30:44;12.4;;;21.6;;
74483;SDS011;62942;52.462;10.846;2024-02-21T05:31:55;12.4;;;22.8;;
74483;SDS011;62942;52.462;10.846;2024-02-21T05:33:04;12;;;19.5;;
74483;SDS011;62942;52.462;10.846;2024-02-21T05:34:14;12.1;;;19.8;;
74483;SDS011;62942;52.462;10.846;2024-02-21T05:35:14;12.5;;;21.5;;
74483;SDS011;62942;52.462;10.846;2024-02-21T05:36:14;12.5;;;20.2;;
74483;SDS011;62942;52.462;10.846;2024-02-21T05:37:14;12.3;;;19.9;;
74483;SDS011;62942;52.462;10.846;2024-02-21T05:38:24;12.6;;;21.2;;
74483;SDS011;62942;52.462;10.846;2024-02-21T05:39:24;12.5;;;19.6;;
74483;SDS011;62942;52.462;10.846;2024-02-21T05:40:34;12.7;;;22.5;;
74483;SDS011;62942;52.462;10.846;2024-02-21T05:41:34;12.4;;;22.1;;
74483;SDS011;62942;52.462;10.846;2024-02-21T05:42:44;11.9;;;19.3;;
74483;SDS011;62942;52.462;10.846;2024-02-21T05:43:44;11.9;;;20.3;;
74483;SDS011;62942;52.462;10.846;2024-02-21T05:44:54;12.6;;;22.5;;
74483;SDS011;62942;52.462;10.846;2024-02-21T05:45:54;12.5;;;20.6;;
74483;SDS011;62942;52.462;10.846;2024-02-21T05:47:04;12.6;;;21.2;;
74483;SDS011;62942;52.462;10.846;2024-02-21T05:48:04;12.6;;;20.1;;
74483;SDS011;62942;52.462;10.846;2024-02-21T05:49:04;12.6;;;22.7;;
74483;SDS011;62942;52.462;10.846;2024-02-21T05:50:04;12.6;;;20.9;;
74483;SDS011;62942;52.462;10.846;2024-02-21T05:51:14;12.4;;;21.6;;
74483;SDS011;62942;52.462;10.846;2024-02-21T05:52:14;12.1;;;19.1;;
74483;SDS011;62942;52.462;10.846;2024-02-21T05:53:24;12.4;;;22.6;;
74483;SDS011;62942;52.462;10.846;2024-02-21T05:54:24;13;;;22.8;;
74483;SDS011;62942;52.462;10.846;2024-02-21T05:55:34;12.7;;;20.5;;
74483;SDS011;62942;52.462;10.846;2024-02-21T05:56:34;13.2;;;21.1;;
74483;SDS011;62942;52.462;10.846;2024-02-21T05:57:44;13;;;21.6;;
74483;SDS011;62942;52.462;10.846;2024-02-21T05:58:44;13;;;21.5;;
74483;SDS011;62942;52.462;10.846;2024-02-21T05:59:54;13;;;23.9;;
74483;SDS011;62942;52.462;10.846;2024-02-21T06:00:54;12.6;;;19;;
74483;SDS011;62942;52.462;10.846;2024-02-21T06:02:04;13;;;19.8;;
74483;SDS011;62942;52.462;10.846;2024-02-21T06:03:14;13;;;22.3;;
74483;SDS011;62942;52.462;10.846;2024-02-21T06:04:24;12.9;;;22.3;;
74483;SDS011;62942;52.462;10.846;2024-02-21T06:05:36;13.3;;;25.4;;
74483;SDS011;62942;52.462;10.846;2024-02-21T06:06:34;12.5;;;20.8;;
74483;SDS011;62942;52.462;10.846;2024-02-21T06:07:44;13.2;;;24.2;;
74483;SDS011;62942;52.462;10.846;2024-02-21T06:08:44;13;;;22.1;;
74483;SDS011;62942;52.462;10.846;2024-02-21T06:09:44;12.5;;;21.3;;
74483;SDS011;62942;52.462;10.846;2024-02-21T06:10:54;12.2;;;20.8;;
74483;SDS011;62942;52.462;10.846;2024-02-21T06:11:54;13;;;21.6;;
74483;SDS011;62942;52.462;10.846;2024-02-21T06:13:04;13.1;;;22.1;;
74483;SDS011;62942;52.462;10.846;2024-02-21T06:14:04;13;;;22;;
74483;SDS011;62942;52.462;10.846;2024-02-21T06:15:14;13.1;;;21.2;;
74483;SDS011;62942;52.462;10.846;2024-02-21T06:16:24;13.4;;;21.8;;
74483;SDS011;62942;52.462;10.846;2024-02-21T06:17:34;13.2;;;23;;
74483;SDS011;62942;52.462;10.846;2024-02-21T06:18:44;13.1;;;21.5;;
74483;SDS011;62942;52.462;10.846;2024-02-21T06:19:54;13.5;;;21.8;;
74483;SDS011;62942;52.462;10.846;2024-02-21T06:21:04;13.6;;;23.1;;
74483;SDS011;62942;52.462;10.846;2024-02-21T06:22:14;13.5;;;23.9;;
74483;SDS011;62942;52.462;10.846;2024-02-21T06:23:15;13.1;;;23.5;;
74483;SDS011;62942;52.462;10.846;2024-02-21T06:24:24;13.5;;;22.1;;
74483;SDS011;62942;52.462;10.846;2024-02-21T06:25:34;13.6;;;22.7;;
74483;SDS011;62942;52.462;10.846;2024-02-21T06:26:34;13.5;;;22.1;;
74483;SDS011;62942;52.462;10.846;2024-02-21T06:27:44;13.6;;;22.1;;
74483;SDS011;62942;52.462;10.846;2024-02-21T06:28:44;13.4;;;25.9;;
74483;SDS011;62942;52.462;10.846;2024-02-21T06:29:54;13.4;;;21.5;;
74483;SDS011;62942;52.462;10.846;2024-02-21T06:30:54;13.6;;;24.4;;
74483;SDS011;62942;52.462;10.846;2024-02-21T06:32:04;13.9;;;22.4;;
74483;SDS011;62942;52.462;10.846;2024-02-21T06:33:14;13.5;;;21.5;;